Time;durP1;ratioP1;P1;durP2;ratioP2;P2;SDS_P1;SDS_P2;PMS_P1;PMS_P2;Temp;Humidity;BMP_temperature;BMP_pressure;BME280_temperature;BME280_humidity;BME280_pressure;Samples;Min_cycle;Max_cycle;Signal;HPM_P1;HPM_P2
2022/01/19 00:00:42;;;;;;;;;24.00;21.00;;;;;5.50;48.00;100406.38;6084593;28;97893;-68
2022/01/19 00:03:46;;;;;;;;;22.50;20.00;;;;;5.53;48.52;100424.78;6090127;28;96909;-70
2022/01/19 00:06:49;;;;;;;;;23.20;21.00;;;;;5.54;48.32;100418.44;6089280;28;97512;-71
2022/01/19 00:09:52;;;;;;;;;23.00;20.00;;;;;5.59;48.33;100413.47;6094359;28;97536;-68
2022/01/19 00:12:58;;;;;;;;;24.00;20.40;;;;;5.67;48.10;100413.53;6101506;28;97890;-70
2022/01/19 00:16:01;;;;;;;;;24.00;21.00;;;;;5.72;48.30;100404.22;6090638;28;97041;-71
2022/01/19 00:19:04;;;;;;;;;23.00;19.00;;;;;5.62;48.61;100404.28;6090572;28;97597;-71
2022/01/19 00:22:09;;;;;;;;;19.00;17.60;;;;;5.63;48.40;100400.63;6073155;28;98550;-71
2022/01/19 00:25:12;;;;;;;;;24.00;20.00;;;;;5.45;49.20;100391.75;6088946;28;98940;-69
2022/01/19 00:28:17;;;;;;;;;22.80;19.80;;;;;5.71;48.61;100402.53;6087245;28;97428;-70
2022/01/19 00:31:20;;;;;;;;;25.75;21.75;;;;;5.76;48.58;100395.75;6088068;28;96619;-69
2022/01/19 00:34:25;;;;;;;;;25.00;22.40;;;;;5.77;48.66;100393.88;6080017;28;97939;-68
2022/01/19 00:37:28;;;;;;;;;23.25;20.00;;;;;5.91;48.37;100383.50;6070929;28;98542;-69
2022/01/19 00:40:32;;;;;;;;;27.40;24.40;;;;;5.90;48.35;100386.34;6087248;28;97838;-71
2022/01/19 00:43:37;;;;;;;;;29.00;22.00;;;;;5.93;48.60;100394.06;6102618;28;98339;-68
2022/01/19 00:46:42;;;;;;;;;26.50;22.00;;;;;5.96;48.37;100394.56;6089123;28;97863;-69
2022/01/19 00:49:45;;;;;;;;;27.00;24.00;;;;;6.00;48.31;100390.63;6089522;28;97500;-71
2022/01/19 00:52:51;;;;;;;;;26.60;21.60;;;;;6.11;48.06;100410.91;6070036;28;96908;-70
2022/01/19 00:55:56;;;;;;;;;29.00;23.20;;;;;6.09;48.17;100415.59;6087249;28;98581;-68
2022/01/19 00:59:01;;;;;;;;;27.80;23.00;;;;;6.16;48.11;100402.44;6089103;28;96821;-71
2022/01/19 01:02:05;;;;;;;;;29.80;24.40;;;;;6.13;48.07;100406.25;6085847;28;97547;-71
2022/01/19 01:05:09;;;;;;;;;27.40;23.40;;;;;6.14;48.09;100415.13;6103566;28;96576;-68
2022/01/19 01:08:13;;;;;;;;;27.00;24.80;;;;;6.05;48.13;100395.50;6089904;28;97513;-72
2022/01/19 01:11:17;;;;;;;;;31.00;26.20;;;;;6.16;48.01;100405.13;6098660;28;97491;-71
2022/01/19 01:21:04;;;;;;;;;26.60;23.60;;;;;6.15;47.78;100360.59;6072510;28;97004;-68
2022/01/19 01:24:07;;;;;;;;;27.00;22.00;;;;;6.20;47.97;100367.16;6087008;28;97473;-68
2022/01/19 01:27:11;;;;;;;;;23.00;20.00;;;;;6.16;47.87;100363.09;6085624;28;97548;-68
2022/01/19 01:30:16;;;;;;;;;25.20;20.40;;;;;6.24;47.90;100359.66;6087837;28;96706;-71
2022/01/19 01:33:19;;;;;;;;;24.67;21.00;;;;;6.22;47.79;100342.88;6087860;28;97246;-71
2022/01/19 01:36:23;;;;;;;;;24.00;21.40;;;;;6.22;47.67;100340.19;6072848;28;97843;-68
2022/01/19 01:39:26;;;;;;;;;23.00;20.00;;;;;6.33;47.66;100339.94;6088044;28;96538;-69
2022/01/19 01:42:30;;;;;;;;;20.00;17.20;;;;;6.38;47.40;100342.97;6072573;28;96666;-71
2022/01/19 01:45:39;;;;;;;;;21.00;20.00;;;;;6.42;47.23;100334.47;6104471;28;97335;-70
2022/01/19 01:48:46;;;;;;;;;21.80;18.40;;;;;6.39;47.32;100310.69;6086498;28;96782;-68
2022/01/19 01:55:12;;;;;;;;;17.60;16.60;;;;;6.40;47.27;100298.13;6072107;28;96925;-71
2022/01/19 01:58:15;;;;;;;;;18.40;14.00;;;;;6.45;47.10;100309.22;6089383;28;97387;-71
2022/01/19 02:01:28;;;;;;;;;13.00;12.20;;;;;6.46;47.06;100310.88;6071670;28;96652;-71
2022/01/19 02:04:34;;;;;;;;;15.00;13.00;;;;;6.48;47.16;100308.88;6087725;28;96618;-71
2022/01/19 02:07:46;;;;;;;;;14.00;12.60;;;;;6.47;46.91;100305.34;6087452;28;98528;-71
2022/01/19 02:11:06;;;;;;;;;16.80;15.40;;;;;6.46;47.21;100300.16;6087354;28;98410;-69
2022/01/19 02:24:40;;;;;;;;;13.00;12.00;;;;;6.52;46.96;100275.41;6085756;28;97199;-69
2022/01/19 02:31:47;;;;;;;;;13.40;11.60;;;;;6.61;46.43;100268.22;6083999;28;98558;-68
2022/01/19 02:41:30;;;;;;;;;11.60;9.40;;;;;6.70;45.96;100264.56;6105472;28;96608;-69
2022/01/19 02:51:29;;;;;;;;;11.00;10.00;;;;;6.77;45.59;100265.59;6002073;29;98391;-71
2022/01/19 02:54:34;;;;;;;;;12.00;11.40;;;;;6.73;45.66;100259.72;6103808;28;97937;-68
2022/01/19 02:57:39;;;;;;;;;12.00;10.60;;;;;6.60;45.56;100245.94;6091653;28;96454;-68
2022/01/19 03:10:47;;;;;;;;;12.25;10.50;;;;;6.81;45.22;100219.53;6073185;28;97123;-68
2022/01/19 03:13:50;;;;;;;;;11.20;10.20;;;;;6.81;45.39;100219.53;6091273;28;97491;-67
2022/01/19 03:16:53;;;;;;;;;11.00;8.40;;;;;6.72;45.26;100212.47;6087720;28;96843;-71
2022/01/19 03:19:57;;;;;;;;;8.40;6.00;;;;;6.81;45.19;100216.00;6093407;28;97885;-72
2022/01/19 03:23:03;;;;;;;;;7.00;6.80;;;;;6.78;45.11;100209.16;6106857;28;96511;-72
2022/01/19 03:26:09;;;;;;;;;10.00;8.20;;;;;6.87;44.77;100210.00;6106120;28;97575;-72
2022/01/19 03:29:31;;;;;;;;;8.00;7.80;;;;;6.93;44.79;100217.38;6092469;28;97499;-72
2022/01/19 03:32:35;;;;;;;;;11.40;11.00;;;;;6.88;44.92;100211.66;6090428;28;96666;-73
2022/01/19 03:35:41;;;;;;;;;8.33;8.00;;;;;6.74;45.05;100190.88;6105956;28;97149;-69
2022/01/19 03:38:45;;;;;;;;;11.50;10.00;;;;;6.88;44.97;100207.16;6106198;28;97013;-71
2022/01/19 03:41:50;;;;;;;;;10.75;9.00;;;;;6.78;44.91;100198.44;6103060;28;97731;-69
2022/01/19 03:44:53;;;;;;;;;11.00;10.00;;;;;6.83;44.89;100193.41;6089116;28;97782;-71
2022/01/19 03:48:09;;;;;;;;;10.00;10.00;;;;;6.82;45.02;100191.72;6070605;28;98140;-69
2022/01/19 03:51:13;;;;;;;;;8.00;8.00;;;;;6.75;44.90;100192.53;6090947;28;98651;-69
2022/01/19 03:54:17;;;;;;;;;9.00;8.00;;;;;6.80;44.76;100185.69;6089186;28;97218;-71
2022/01/19 03:57:21;;;;;;;;;10.60;8.80;;;;;6.79;44.80;100175.94;6083776;28;98009;-69
2022/01/19 04:00:25;;;;;;;;;10.20;9.00;;;;;6.81;44.86;100178.47;6089041;28;96647;-71
2022/01/19 04:03:42;;;;;;;;;7.00;6.60;;;;;6.76;44.91;100173.63;6086465;28;97539;-67
2022/01/19 04:06:56;;;;;;;;;9.00;7.60;;;;;6.70;45.05;100171.59;6088032;28;96903;-70
2022/01/19 04:09:59;;;;;;;;;8.00;7.00;;;;;6.72;45.13;100176.78;6067870;28;98786;-71
2022/01/19 04:13:23;;;;;;;;;7.80;7.80;;;;;6.80;44.78;100180.31;6089301;28;97408;-71
2022/01/19 04:16:26;;;;;;;;;9.00;8.00;;;;;6.58;44.66;100139.94;6086969;28;98146;-69
2022/01/19 04:19:32;;;;;;;;;7.00;5.50;;;;;6.94;44.72;100176.97;6103082;28;97433;-70
2022/01/19 04:22:48;;;;;;;;;8.80;6.00;;;;;7.00;44.60;100180.84;6104297;28;96840;-70
2022/01/19 04:25:51;;;;;;;;;7.00;6.00;;;;;7.01;44.34;100174.47;6080708;28;97882;-73
2022/01/19 04:28:56;;;;;;;;;7.00;7.00;;;;;7.07;43.94;100173.81;6089001;28;96399;-70
2022/01/19 04:32:07;;;;;;;;;7.25;7.25;;;;;7.17;44.08;100160.22;6086947;28;97495;-69
2022/01/19 04:35:14;;;;;;;;;7.00;6.00;;;;;7.07;44.25;100132.75;6074381;28;98459;-71
2022/01/19 04:45:33;;;;;;;;;7.40;7.00;;;;;7.19;43.92;100134.06;6089803;28;97000;-69
2022/01/19 05:02:25;;;;;;;;;11.00;9.00;;;;;7.13;43.91;100108.78;6087329;28;96880;-70
2022/01/19 05:05:46;;;;;;;;;7.00;7.00;;;;;6.90;44.29;100097.88;6088401;28;96698;-70
2022/01/19 05:08:59;;;;;;;;;9.50;8.00;;;;;7.01;44.17;100094.03;6095810;28;98869;-68
2022/01/19 05:15:33;;;;;;;;;8.00;7.00;;;;;7.02;43.99;100086.81;6031664;28;98485;-68
2022/01/19 05:18:39;;;;;;;;;8.40;7.00;;;;;6.98;44.08;100091.69;6080336;28;97984;-68
2022/01/19 05:21:43;;;;;;;;;7.00;7.00;;;;;6.78;44.12;100087.69;6088872;28;98166;-72
2022/01/19 05:24:46;;;;;;;;;8.25;7.75;;;;;6.82;44.43;100083.66;6089323;28;96856;-70
2022/01/19 05:28:00;;;;;;;;;10.00;8.00;;;;;6.93;43.99;100075.28;6089318;28;96489;-70
2022/01/19 05:31:04;;;;;;;;;8.00;8.00;;;;;6.89;44.06;100071.28;6088468;28;98403;-69
2022/01/19 05:34:09;;;;;;;;;11.50;9.50;;;;;6.94;44.06;100082.28;6087608;28;98016;-71
2022/01/19 05:37:19;;;;;;;;;9.75;9.75;;;;;6.97;44.16;100071.25;6102384;28;96851;-68
2022/01/19 05:40:48;;;;;;;;;10.60;10.00;;;;;6.86;44.10;100063.56;6103171;28;97474;-69
2022/01/19 05:43:51;;;;;;;;;11.00;9.00;;;;;6.80;44.25;100062.38;6087075;28;99828;-71
2022/01/19 05:46:55;;;;;;;;;10.80;10.00;;;;;6.76;44.29;100054.84;6083191;28;97517;-70
2022/01/19 05:50:00;;;;;;;;;9.75;9.00;;;;;6.49;44.25;100019.38;6088999;28;96915;-68
2022/01/19 05:53:04;;;;;;;;;9.00;8.00;;;;;6.63;44.12;100031.25;6074459;28;97663;-71
2022/01/19 05:56:07;;;;;;;;;10.00;8.00;;;;;6.70;44.12;100050.16;6083492;28;97423;-71
2022/01/19 05:59:30;;;;;;;;;11.60;10.00;;;;;6.67;44.24;100045.97;6104317;28;96465;-69
2022/01/19 06:02:33;;;;;;;;;11.00;10.00;;;;;6.66;44.29;100032.75;6085953;28;96936;-69
2022/01/19 06:05:39;;;;;;;;;11.00;10.00;;;;;6.66;44.65;100020.19;6070068;28;99563;-71
2022/01/19 06:09:21;;;;;;;;;12.00;10.80;;;;;6.71;44.29;100033.91;6083704;28;97763;-68
2022/01/19 06:12:25;;;;;;;;;13.00;11.60;;;;;6.60;44.09;100030.75;6084612;28;97873;-71
2022/01/19 06:15:28;;;;;;;;;11.80;10.40;;;;;6.56;44.37;100032.06;6074465;28;97973;-68
2022/01/19 06:18:33;;;;;;;;;13.80;11.80;;;;;6.49;44.29;100027.41;6073301;28;98414;-71
2022/01/19 06:21:39;;;;;;;;;12.25;10.00;;;;;6.50;44.28;100020.19;6092216;28;97717;-70
2022/01/19 06:24:42;;;;;;;;;10.80;9.80;;;;;6.46;44.21;100017.00;6085708;28;96840;-69
2022/01/19 06:27:45;;;;;;;;;12.40;11.40;;;;;6.46;43.99;100008.13;6106763;28;97015;-70
2022/01/19 06:30:49;;;;;;;;;12.00;10.40;;;;;6.48;44.09;100006.13;6089726;28;97220;-68
2022/01/19 06:33:52;;;;;;;;;12.00;11.00;;;;;6.44;44.00;100007.47;6101528;28;97096;-69
2022/01/19 06:37:01;;;;;;;;;12.75;11.00;;;;;6.46;44.06;100008.97;6101586;28;97712;-68
2022/01/19 06:40:16;;;;;;;;;12.40;11.00;;;;;6.36;43.63;99986.03;6078974;28;96575;-67
2022/01/19 06:43:20;;;;;;;;;11.20;11.00;;;;;6.31;44.21;100007.13;6103628;28;96595;-68
2022/01/19 06:46:24;;;;;;;;;12.00;11.00;;;;;6.43;44.03;100005.81;6105300;28;97466;-68
2022/01/19 06:49:28;;;;;;;;;13.00;12.00;;;;;6.50;43.68;100002.25;6085352;28;97308;-69
2022/01/19 06:52:35;;;;;;;;;15.40;13.60;;;;;6.51;43.43;100001.28;6104523;28;97307;-70
2022/01/19 06:55:38;;;;;;;;;16.00;14.40;;;;;6.57;43.51;99999.75;6080338;28;98167;-68
2022/01/19 06:58:42;;;;;;;;;15.00;12.00;;;;;6.51;43.35;99998.59;6087627;28;96831;-68
2022/01/19 07:02:11;;;;;;;;;17.40;16.40;;;;;6.70;43.05;99994.72;6076371;28;98489;-67
2022/01/19 07:05:23;;;;;;;;;18.00;15.00;;;;;7.51;42.21;100002.53;6088741;28;97429;-70
2022/01/19 07:08:39;;;;;;;;;12.60;11.20;;;;;8.16;40.04;99994.09;6073018;28;100027;-67
2022/01/19 07:11:44;;;;;;;;;14.00;13.00;;;;;8.93;38.79;99989.38;6089447;28;96595;-68
2022/01/19 07:14:47;;;;;;;;;15.00;13.00;;;;;9.88;37.18;100000.97;6072956;28;98169;-70
2022/01/19 07:17:50;;;;;;;;;14.00;12.20;;;;;10.90;35.12;99993.47;6074027;28;97286;-70
2022/01/19 07:20:54;;;;;;;;;14.00;12.00;;;;;11.79;33.30;99980.84;6061050;28;96801;-69
2022/01/19 07:24:07;;;;;;;;;17.50;14.00;;;;;12.98;31.81;99980.75;6087586;28;96597;-70
2022/01/19 07:27:11;;;;;;;;;15.75;12.75;;;;;14.06;30.07;99978.31;6092772;28;96642;-69
2022/01/19 07:30:15;;;;;;;;;15.60;13.00;;;;;14.79;28.15;99975.91;6080705;28;96666;-71
2022/01/19 07:33:18;;;;;;;;;17.00;15.00;;;;;15.25;27.73;99972.75;6101715;28;97918;-70
2022/01/19 07:36:22;;;;;;;;;15.20;13.60;;;;;15.46;27.44;99972.28;6099389;28;97477;-70
2022/01/19 07:39:26;;;;;;;;;16.00;15.00;;;;;15.89;27.01;99961.31;6088079;28;98075;-69
2022/01/19 07:42:30;;;;;;;;;15.00;14.00;;;;;15.90;26.29;99957.53;6086459;28;97052;-69
2022/01/19 07:45:39;;;;;;;;;15.00;14.00;;;;;15.86;26.52;99945.47;6087111;28;96869;-72
2022/01/19 07:49:12;;;;;;;;;14.60;14.00;;;;;16.29;26.25;99937.91;6072405;28;97436;-70
2022/01/19 07:52:33;;;;;;;;;14.80;13.00;;;;;17.13;25.25;99935.84;6088002;28;97290;-71
2022/01/19 07:55:45;;;;;;;;;14.40;13.00;;;;;18.08;23.79;99939.72;6106678;28;97814;-72
2022/01/19 07:59:04;;;;;;;;;15.25;14.25;;;;;18.84;22.71;99932.03;6104378;28;97452;-72
2022/01/19 08:02:33;;;;;;;;;15.20;12.20;;;;;19.71;21.77;99930.25;6083907;28;96818;-70
2022/01/19 08:06:08;;;;;;;;;15.00;14.00;;;;;20.75;20.90;99927.16;6075954;28;98426;-69
2022/01/19 08:09:13;;;;;;;;;16.80;14.80;;;;;21.18;20.12;99921.44;6087392;28;97373;-73
2022/01/19 08:12:18;;;;;;;;;16.40;14.00;;;;;21.60;19.66;99917.78;6077396;28;97132;-70
2022/01/19 08:15:23;;;;;;;;;14.00;13.00;;;;;22.11;18.90;99924.25;6103759;28;97175;-73
2022/01/19 08:18:29;;;;;;;;;18.50;16.00;;;;;22.48;18.51;99922.09;6086069;28;96678;-73
2022/01/19 08:21:32;;;;;;;;;13.00;13.00;;;;;22.72;18.68;99910.59;6088928;28;97307;-70
2022/01/19 08:24:38;;;;;;;;;16.00;13.50;;;;;22.72;18.33;99902.34;6105266;28;96716;-72
2022/01/19 08:27:49;;;;;;;;;14.80;13.20;;;;;22.48;18.67;99900.09;6051063;28;97281;-73
2022/01/19 08:30:57;;;;;;;;;15.00;13.00;;;;;22.67;18.63;99894.06;6063246;28;98382;-72
2022/01/19 08:34:27;;;;;;;;;16.00;15.00;;;;;22.56;18.03;99897.91;6088782;28;98559;-70
2022/01/19 08:37:49;;;;;;;;;17.00;17.00;;;;;22.55;18.10;99888.84;6090839;28;96693;-70
2022/01/19 08:40:52;;;;;;;;;20.00;18.40;;;;;22.53;17.91;99884.75;6105772;28;97702;-70
2022/01/19 08:44:01;;;;;;;;;21.00;19.50;;;;;22.56;18.53;99874.00;6105883;28;97529;-71
2022/01/19 08:47:05;;;;;;;;;20.60;20.00;;;;;22.83;18.21;99868.22;6104956;28;97426;-73
2022/01/19 08:50:51;;;;;;;;;24.60;21.60;;;;;22.63;17.87;99863.53;6088176;28;99714;-72
2022/01/19 08:54:16;;;;;;;;;23.60;20.20;;;;;22.81;18.19;99857.53;6103890;28;97998;-73
2022/01/19 08:57:41;;;;;;;;;24.50;22.50;;;;;22.60;18.05;99830.28;6088019;28;96961;-70
2022/01/19 09:00:47;;;;;;;;;26.60;23.40;;;;;22.46;18.48;99846.53;6090238;28;97428;-73
2022/01/19 09:03:51;;;;;;;;;27.75;25.00;;;;;22.24;18.47;99835.81;6087987;28;98618;-73
2022/01/19 09:06:55;;;;;;;;;29.00;25.00;;;;;22.85;18.12;99842.09;6103928;28;97407;-73
2022/01/19 09:09:59;;;;;;;;;32.60;28.00;;;;;22.88;18.30;99840.72;6088248;28;96468;-70
2022/01/19 09:13:02;;;;;;;;;29.00;25.00;;;;;22.98;17.79;99835.19;6088074;28;97604;-71
2022/01/19 09:16:07;;;;;;;;;27.60;24.60;;;;;23.12;18.16;99827.16;6089152;28;97394;-70
2022/01/19 09:19:12;;;;;;;;;21.60;20.60;;;;;22.53;18.23;99816.84;6086398;28;99625;-73
2022/01/19 09:22:15;;;;;;;;;23.50;22.00;;;;;22.17;18.79;99829.78;6089638;28;97634;-73
2022/01/19 09:25:19;;;;;;;;;27.40;24.40;;;;;22.20;18.70;99823.75;6070117;28;97721;-70
2022/01/19 09:28:22;;;;;;;;;27.50;24.50;;;;;22.18;18.72;99812.22;6090770;28;97350;-71
2022/01/19 09:31:27;;;;;;;;;26.80;24.00;;;;;22.07;18.54;99810.56;6086519;28;96625;-71
2022/01/19 09:34:30;;;;;;;;;25.40;23.00;;;;;21.69;19.32;99814.63;6084256;28;97462;-72
2022/01/19 09:37:35;;;;;;;;;24.00;21.20;;;;;21.18;19.22;99813.66;6069905;28;97395;-75
2022/01/19 09:40:59;;;;;;;;;28.00;24.00;;;;;20.83;19.68;99789.59;6085337;28;96797;-73
2022/01/19 09:44:03;;;;;;;;;28.00;26.00;;;;;20.94;19.91;99798.72;6095118;28;97442;-70
2022/01/19 09:47:08;;;;;;;;;27.25;25.00;;;;;20.83;19.97;99788.78;6089694;28;99495;-71
2022/01/19 09:50:12;;;;;;;;;31.40;27.40;;;;;21.02;19.46;99789.97;6092050;28;98299;-72
2022/01/19 09:53:16;;;;;;;;;29.20;26.60;;;;;20.98;19.83;99777.88;6091721;28;97023;-71
2022/01/19 09:56:20;;;;;;;;;28.20;25.00;;;;;21.16;20.02;99769.19;6089821;28;99634;-71
2022/01/19 09:59:24;;;;;;;;;29.25;25.75;;;;;21.28;19.55;99763.50;6090948;28;98148;-71
2022/01/19 10:02:29;;;;;;;;;27.50;24.50;;;;;21.51;19.36;99761.06;6086837;28;98891;-73
2022/01/19 10:05:32;;;;;;;;;27.40;25.40;;;;;21.80;18.84;99758.63;6091460;28;96797;-70
2022/01/19 10:08:38;;;;;;;;;28.67;24.67;;;;;21.94;19.28;99742.47;6072576;28;99540;-73
2022/01/19 10:18:26;;;;;;;;;26.00;23.50;;;;;21.11;19.42;99719.81;6060256;28;97409;-71
2022/01/19 10:21:30;;;;;;;;;27.00;25.00;;;;;21.16;19.25;99719.84;6090948;28;97622;-71
2022/01/19 10:24:41;;;;;;;;;27.00;23.80;;;;;21.08;19.30;99696.50;6076084;28;98739;-73
2022/01/19 10:27:46;;;;;;;;;26.60;23.60;;;;;21.27;19.32;99715.22;6089568;28;96758;-71
2022/01/19 10:30:50;;;;;;;;;25.00;22.00;;;;;21.25;19.60;99698.22;6087940;28;98156;-72
2022/01/19 10:34:12;;;;;;;;;24.80;23.00;;;;;21.58;19.25;99701.25;6089736;28;98195;-74
2022/01/19 10:37:23;;;;;;;;;29.60;25.60;;;;;21.39;19.13;99705.66;6089012;28;97474;-71
2022/01/19 10:40:26;;;;;;;;;27.25;25.00;;;;;21.10;19.99;99696.22;6090044;28;97486;-73
2022/01/19 10:43:33;;;;;;;;;32.20;25.60;;;;;20.83;19.71;99687.38;6072082;28;97470;-73
2022/01/19 10:46:39;;;;;;;;;28.25;25.25;;;;;20.31;19.99;99683.59;6090042;28;96529;-74
2022/01/19 10:49:53;;;;;;;;;27.00;23.60;;;;;20.30;20.21;99673.72;6087168;28;98502;-74
2022/01/19 10:52:59;;;;;;;;;24.40;21.00;;;;;20.55;20.59;99662.06;6090490;28;96729;-71
2022/01/19 10:56:05;;;;;;;;;27.20;23.80;;;;;20.44;20.01;99663.13;6090852;28;97801;-72
2022/01/19 10:59:11;;;;;;;;;23.50;22.50;;;;;20.39;20.34;99652.13;6094618;28;97188;-72
2022/01/19 11:02:14;;;;;;;;;21.60;20.60;;;;;20.36;20.13;99651.84;6086223;28;96763;-74
2022/01/19 11:05:40;;;;;;;;;23.40;21.40;;;;;20.15;20.57;99645.41;6092239;28;98309;-74
2022/01/19 11:08:48;;;;;;;;;23.80;22.00;;;;;20.13;20.66;99637.47;6089953;28;98918;-72
2022/01/19 11:11:53;;;;;;;;;20.00;19.20;;;;;20.03;20.86;99639.34;6092326;28;97473;-71
2022/01/19 11:14:56;;;;;;;;;21.60;20.60;;;;;19.63;21.10;99628.94;6105661;28;97230;-73
2022/01/19 11:18:15;;;;;;;;;23.00;21.00;;;;;19.08;21.86;99619.16;6089848;28;96799;-72
2022/01/19 11:21:23;;;;;;;;;23.60;21.40;;;;;19.17;21.90;99617.59;6089271;28;98115;-73
2022/01/19 11:24:34;;;;;;;;;21.40;20.00;;;;;19.32;21.46;99606.78;6089108;28;98518;-72
2022/01/19 11:27:40;;;;;;;;;22.00;19.00;;;;;19.24;21.77;99596.34;6087846;28;98694;-72
2022/01/19 11:30:47;;;;;;;;;18.80;17.80;;;;;19.08;21.71;99599.19;6087095;28;97611;-72
2022/01/19 11:33:55;;;;;;;;;21.40;17.60;;;;;18.78;22.23;99581.44;6091742;28;96888;-73
2022/01/19 11:37:00;;;;;;;;;20.00;18.00;;;;;18.71;22.13;99575.38;6091343;28;97108;-74
2022/01/19 11:40:11;;;;;;;;;19.00;18.00;;;;;18.42;22.45;99560.28;6090103;28;97039;-73
2022/01/19 11:43:19;;;;;;;;;21.00;17.00;;;;;18.08;22.95;99544.03;6092202;28;97033;-73
2022/01/19 11:46:29;;;;;;;;;19.00;17.00;;;;;18.25;23.66;99562.25;6090286;28;96527;-74
2022/01/19 11:49:55;;;;;;;;;22.00;17.00;;;;;18.26;23.23;99558.44;6092274;28;97063;-72
2022/01/19 11:53:08;;;;;;;;;17.25;16.00;;;;;18.23;22.91;99546.13;6087347;28;97876;-72
2022/01/19 11:56:12;;;;;;;;;19.00;16.75;;;;;18.15;23.10;99538.41;6092305;28;97709;-72
2022/01/19 11:59:15;;;;;;;;;22.60;20.00;;;;;18.13;23.30;99537.84;6089184;28;97044;-71
2022/01/19 12:02:37;;;;;;;;;16.00;15.00;;;;;17.82;22.93;99533.91;6091719;28;97176;-72
2022/01/19 12:06:00;;;;;;;;;20.80;18.00;;;;;17.60;23.63;99520.25;6088079;28;97046;-72
2022/01/19 12:09:09;;;;;;;;;19.00;17.00;;;;;17.48;23.91;99518.69;6074741;28;97790;-72
2022/01/19 12:12:14;;;;;;;;;19.40;14.80;;;;;17.59;24.05;99517.78;6088501;28;96634;-71
2022/01/19 12:15:49;;;;;;;;;17.00;15.75;;;;;17.70;23.81;99516.81;6080679;28;97084;-73
2022/01/19 12:18:54;;;;;;;;;18.00;17.00;;;;;17.69;23.90;99507.81;6089238;28;97458;-71
2022/01/19 12:22:05;;;;;;;;;21.00;19.00;;;;;17.68;23.83;99489.81;6090084;28;97425;-71
2022/01/19 12:25:13;;;;;;;;;18.00;17.00;;;;;17.51;23.81;99497.19;6090115;28;97256;-71
2022/01/19 12:28:46;;;;;;;;;19.00;19.00;;;;;17.22;24.27;99487.50;6284980;27;96006;-71
2022/01/19 12:31:49;;;;;;;;;20.60;18.60;;;;;17.10;24.61;99479.44;6243547;27;97442;-73
2022/01/19 12:34:55;;;;;;;;;17.80;15.40;;;;;16.91;24.83;99474.50;6235428;27;96578;-72
2022/01/19 12:37:59;;;;;;;;;19.00;17.20;;;;;16.79;24.90;99469.97;6239719;27;96750;-74
2022/01/19 12:41:03;;;;;;;;;18.00;16.00;;;;;16.84;24.78;99458.31;6231095;27;97202;-73
2022/01/19 12:44:42;;;;;;;;;21.80;19.00;;;;;17.03;24.62;99446.09;6233279;27;97511;-70
2022/01/19 12:47:48;;;;;;;;;21.40;20.00;;;;;16.93;24.50;99437.75;6253247;27;96396;-70
2022/01/19 12:50:54;;;;;;;;;20.50;18.00;;;;;16.52;25.04;99427.28;6246015;27;97489;-73
2022/01/19 12:53:57;;;;;;;;;21.50;18.50;;;;;16.18;25.49;99424.50;6227678;28;96826;-73
2022/01/19 12:57:21;;;;;;;;;22.80;21.80;;;;;15.88;25.89;99421.25;6246478;27;97455;-71
2022/01/19 13:00:29;;;;;;;;;18.50;17.00;;;;;15.39;26.60;99409.91;6240298;27;96817;-71
2022/01/19 13:03:35;;;;;;;;;23.40;19.40;;;;;15.42;26.87;99404.00;6238615;27;96766;-69
2022/01/19 13:06:39;;;;;;;;;20.00;18.75;;;;;15.43;26.98;99408.38;6257021;27;96676;-69
2022/01/19 13:10:06;;;;;;;;;21.67;18.67;;;;;15.31;26.91;99404.84;6232750;27;98682;-71
2022/01/19 13:13:13;;;;;;;;;20.80;19.00;;;;;15.24;27.14;99392.47;6232291;27;97600;-69
2022/01/19 13:16:26;;;;;;;;;21.60;19.60;;;;;15.07;27.38;99385.03;6250396;27;97647;-70
2022/01/19 13:19:35;;;;;;;;;22.00;20.00;;;;;14.92;27.45;99381.16;6256912;27;97261;-74
2022/01/19 13:22:49;;;;;;;;;23.80;19.80;;;;;14.82;27.39;99378.22;6242563;27;96850;-69
2022/01/19 13:25:56;;;;;;;;;28.00;22.40;;;;;14.96;27.44;99374.19;6239718;27;97460;-71
2022/01/19 13:29:12;;;;;;;;;22.00;20.00;;;;;14.94;27.62;99382.59;6249015;27;97565;-70
2022/01/19 13:32:19;;;;;;;;;25.00;22.00;;;;;15.09;27.54;99369.34;6231359;27;96746;-71
2022/01/19 13:35:25;;;;;;;;;22.00;19.75;;;;;15.11;27.64;99369.09;6239206;27;97192;-71
2022/01/19 13:38:29;;;;;;;;;23.00;21.00;;;;;14.98;27.74;99362.03;6244338;27;98054;-72
2022/01/19 13:41:42;;;;;;;;;25.00;23.00;;;;;15.00;27.76;99357.19;6228584;27;96803;-69
2022/01/19 13:44:49;;;;;;;;;27.80;22.80;;;;;14.92;27.90;99354.84;6228343;28;97468;-70
2022/01/19 13:48:04;;;;;;;;;21.00;20.00;;;;;14.84;28.02;99352.50;6232029;28;98732;-71
2022/01/19 13:51:10;;;;;;;;;20.80;19.40;;;;;14.85;28.36;99353.34;6202665;28;97015;-70
2022/01/19 13:54:14;;;;;;;;;21.75;21.75;;;;;14.82;28.34;99354.63;6228727;28;96694;-73
2022/01/19 13:57:27;;;;;;;;;21.80;19.80;;;;;14.78;28.47;99345.31;6236545;28;96751;-70
2022/01/19 14:00:30;;;;;;;;;24.00;20.00;;;;;14.74;28.62;99338.72;6221154;28;96553;-70
2022/01/19 14:03:52;;;;;;;;;26.00;23.00;;;;;14.60;28.72;99348.16;6212870;28;97530;-72
2022/01/19 14:07:04;;;;;;;;;30.80;24.80;;;;;14.46;29.08;99342.16;6226529;28;98213;-69
2022/01/19 14:10:09;;;;;;;;;27.00;23.40;;;;;14.40;29.27;99334.13;6216882;27;97087;-73
2022/01/19 14:13:29;;;;;;;;;25.00;22.00;;;;;14.25;29.34;99324.53;6221563;28;97179;-72
2022/01/19 14:16:37;;;;;;;;;25.33;22.00;;;;;14.17;29.29;99327.56;6220014;28;96989;-70
2022/01/19 14:19:45;;;;;;;;;25.00;23.00;;;;;14.03;29.57;99314.47;6226825;28;97112;-69
2022/01/19 14:23:09;;;;;;;;;23.75;22.25;;;;;13.80;29.82;99299.81;6223889;28;96689;-68
2022/01/19 14:26:13;;;;;;;;;28.60;25.00;;;;;13.76;29.86;99308.66;6213713;28;96719;-69
2022/01/19 14:29:16;;;;;;;;;27.20;24.00;;;;;13.65;30.29;99294.00;6215953;28;98321;-72
2022/01/19 14:32:20;;;;;;;;;29.40;26.60;;;;;13.44;30.30;99297.22;6213962;28;96549;-71
2022/01/19 14:35:28;;;;;;;;;24.75;23.25;;;;;13.25;30.58;99285.63;6211532;28;97105;-72
2022/01/19 14:38:36;;;;;;;;;27.40;25.00;;;;;13.10;30.90;99281.63;6212293;28;96791;-72
2022/01/19 14:41:39;;;;;;;;;30.60;25.00;;;;;12.89;31.29;99278.38;6214119;28;96635;-69
2022/01/19 14:44:47;;;;;;;;;26.25;23.25;;;;;12.69;31.62;99274.25;6222425;28;96610;-72
2022/01/19 14:47:54;;;;;;;;;31.00;26.00;;;;;12.44;32.05;99267.03;6231639;27;96566;-69
2022/01/19 14:50:58;;;;;;;;;28.50;24.50;;;;;12.17;32.40;99257.50;6213267;28;97825;-69
2022/01/19 14:54:05;;;;;;;;;29.60;25.00;;;;;11.82;33.02;99253.69;6226401;28;98706;-70
2022/01/19 14:57:08;;;;;;;;;26.20;24.20;;;;;11.52;33.41;99256.19;6233462;28;97430;-70
2022/01/19 15:00:12;;;;;;;;;27.20;24.20;;;;;11.22;33.97;99248.69;6223428;28;97144;-69
2022/01/19 15:03:15;;;;;;;;;33.00;27.00;;;;;10.93;34.60;99241.19;6232286;28;97379;-69
2022/01/19 15:06:20;;;;;;;;;29.60;25.80;;;;;10.70;34.94;99238.97;6213021;28;97444;-68
2022/01/19 15:09:24;;;;;;;;;28.50;25.00;;;;;10.48;35.64;99234.94;6229245;28;96748;-70
2022/01/19 15:12:27;;;;;;;;;27.25;25.25;;;;;10.23;35.87;99228.56;6213366;27;96499;-69
2022/01/19 15:15:34;;;;;;;;;26.00;24.00;;;;;9.91;36.70;99219.50;6202815;28;98398;-68
2022/01/19 15:18:37;;;;;;;;;26.00;23.00;;;;;9.65;37.12;99214.97;6211402;28;97058;-68
2022/01/19 15:21:42;;;;;;;;;27.00;24.00;;;;;9.41;37.57;99210.19;6210921;28;98590;-71
2022/01/19 15:24:45;;;;;;;;;25.00;23.00;;;;;9.18;38.04;99194.47;6216354;28;97373;-68
2022/01/19 15:27:49;;;;;;;;;29.25;25.75;;;;;9.09;38.27;99201.03;6228706;28;98467;-68
2022/01/19 15:30:53;;;;;;;;;30.00;26.50;;;;;8.92;38.65;99197.91;6247287;27;98436;-71
2022/01/19 15:33:56;;;;;;;;;33.40;28.40;;;;;8.79;39.15;99189.84;6245562;27;96577;-69
2022/01/19 15:37:01;;;;;;;;;30.00;28.00;;;;;8.62;39.42;99193.91;6223369;27;97090;-72
2022/01/19 15:40:12;;;;;;;;;27.50;22.75;;;;;8.54;39.49;99180.66;6226181;27;97703;-69
2022/01/19 15:43:36;;;;;;;;;28.00;25.20;;;;;8.47;39.59;99188.69;6225011;28;97706;-67
2022/01/19 15:46:40;;;;;;;;;30.00;25.60;;;;;8.46;39.46;99183.50;6215037;28;97780;-68